Time;durP1;ratioP1;P1;durP2;ratioP2;P2;SDS_P1;SDS_P2;PMS_P1;PMS_P2;Temp;Humidity;BMP_temperature;BMP_pressure;BME280_temperature;BME280_humidity;BME280_pressure;Samples;Min_cycle;Max_cycle;Signal;HPM_P1;HPM_P2
2022/09/07 00:02:19;;;;;;;4.05;1.80;;;;;;;17.47;100.00;95738.78;4971523;28;24556;-73
2022/09/07 00:04:46;;;;;;;3.65;1.90;;;;;;;17.54;100.00;95737.25;4965893;28;24516;-73
2022/09/07 00:07:13;;;;;;;4.57;1.60;;;;;;;17.67;100.00;95737.75;4967171;28;24442;-74
2022/09/07 00:09:40;;;;;;;3.70;1.70;;;;;;;17.61;100.00;95727.00;4966149;28;25077;-72
2022/09/07 00:12:07;;;;;;;5.03;1.97;;;;;;;17.59;100.00;95721.94;4971403;28;24828;-73
2022/09/07 00:14:34;;;;;;;5.65;1.83;;;;;;;17.61;100.00;95722.63;4971578;28;24448;-73
2022/09/07 00:17:00;;;;;;;3.20;1.50;;;;;;;17.33;100.00;95719.06;4966472;28;24436;-72
2022/09/07 00:19:26;;;;;;;4.50;1.90;;;;;;;17.34;100.00;95709.41;4969005;28;24480;-73
2022/09/07 00:21:53;;;;;;;4.28;2.13;;;;;;;17.34;100.00;95712.84;4971272;28;24437;-73
2022/09/07 00:24:21;;;;;;;5.47;1.85;;;;;;;17.17;100.00;95713.56;4971445;28;24452;-72
2022/09/07 00:26:47;;;;;;;5.85;1.98;;;;;;;17.03;100.00;95711.38;4971185;28;24448;-73
2022/09/07 00:29:14;;;;;;;3.45;1.98;;;;;;;16.95;100.00;95701.59;4969011;28;24437;-73
2022/09/07 00:31:40;;;;;;;3.65;1.88;;;;;;;17.02;100.00;95694.84;4967641;28;24824;-73
2022/09/07 00:34:07;;;;;;;8.27;1.60;;;;;;;17.01;100.00;95693.16;4971256;28;24528;-73
2022/09/07 00:36:33;;;;;;;3.72;1.92;;;;;;;17.04;100.00;95682.44;4965794;28;24429;-74
2022/09/07 00:39:00;;;;;;;7.18;2.00;;;;;;;17.00;100.00;95681.06;4965238;28;24491;-74
2022/09/07 00:41:27;;;;;;;5.88;1.73;;;;;;;17.06;100.00;95677.91;4970133;28;24445;-75
2022/09/07 00:43:55;;;;;;;3.97;2.15;;;;;;;17.09;100.00;95676.78;4968654;28;24437;-75
2022/09/07 00:46:24;;;;;;;3.83;2.10;;;;;;;17.14;100.00;95679.84;4970193;28;24905;-75
2022/09/07 00:48:55;;;;;;;5.40;2.00;;;;;;;17.13;100.00;95670.31;4964323;28;24497;-75
2022/09/07 00:51:26;;;;;;;4.43;2.22;;;;;;;17.14;100.00;95670.19;4968804;28;24464;-75
2022/09/07 00:53:57;;;;;;;4.90;2.28;;;;;;;17.21;100.00;95667.84;4970999;28;24445;-75
2022/09/07 00:56:27;;;;;;;3.92;1.75;;;;;;;17.28;100.00;95666.31;4968751;28;24445;-75
2022/09/07 00:58:55;;;;;;;4.80;2.17;;;;;;;17.16;100.00;95670.03;4964459;28;24433;-75
2022/09/07 01:01:22;;;;;;;5.82;2.40;;;;;;;17.17;100.00;95669.09;4969080;28;24438;-75
2022/09/07 01:03:52;;;;;;;5.93;2.25;;;;;;;17.13;100.00;95668.53;4970527;28;25088;-75
2022/09/07 01:06:24;;;;;;;4.45;1.88;;;;;;;17.15;100.00;95657.91;4969603;28;24813;-75
2022/09/07 01:08:51;;;;;;;3.45;1.83;;;;;;;17.16;100.00;95659.56;4959194;28;25082;-75
2022/09/07 01:11:19;;;;;;;4.10;2.10;;;;;;;17.18;100.00;95652.41;4965596;28;24461;-75
2022/09/07 01:13:47;;;;;;;4.30;1.70;;;;;;;17.12;100.00;95656.41;4970739;28;24492;-75
2022/09/07 01:16:30;;;;;;;3.95;1.83;;;;;;;17.12;100.00;95647.72;4970045;28;24442;-75
2022/09/07 01:19:14;;;;;;;4.38;1.90;;;;;;;17.16;100.00;95646.47;4973570;28;24441;-75
2022/09/07 01:21:55;;;;;;;6.18;1.90;;;;;;;17.18;100.00;95647.19;4969670;28;24442;-75
2022/09/07 01:24:40;;;;;;;3.45;2.13;;;;;;;17.11;100.00;95651.31;4972472;28;24510;-75
2022/09/07 01:27:51;;;;;;;4.53;1.88;;;;;;;17.07;100.00;95653.38;4974713;28;24565;-75
2022/09/07 01:30:19;;;;;;;4.13;1.92;;;;;;;17.12;100.00;95656.41;4968092;28;24448;-75
2022/09/07 01:33:00;;;;;;;4.57;2.40;;;;;;;17.13;100.00;95652.84;4971972;28;24473;-75
2022/09/07 01:35:36;;;;;;;4.55;2.22;;;;;;;17.11;100.00;95652.13;4974096;28;24438;-75
2022/09/07 01:38:10;;;;;;;5.20;1.85;;;;;;;17.13;100.00;95663.31;4965328;28;25002;-75
2022/09/07 01:40:44;;;;;;;4.38;2.10;;;;;;;17.11;100.00;95664.41;4971681;28;24445;-75
2022/09/07 01:43:16;;;;;;;3.83;2.13;;;;;;;17.12;100.00;95666.03;4973980;28;24445;-75
2022/09/07 01:45:45;;;;;;;4.20;2.00;;;;;;;17.16;100.00;95667.41;4967089;28;24434;-74
2022/09/07 01:48:16;;;;;;;5.00;2.00;;;;;;;17.26;100.00;95667.41;4973883;28;24437;-75
2022/09/07 01:50:47;;;;;;;4.88;2.08;;;;;;;17.32;100.00;95669.47;4968282;28;24434;-75
2022/09/07 01:53:18;;;;;;;5.97;2.22;;;;;;;17.35;100.00;95674.41;4973309;28;24523;-75
2022/09/07 01:55:48;;;;;;;3.10;1.98;;;;;;;17.37;100.00;95683.78;4971389;28;24526;-75
2022/09/07 01:58:21;;;;;;;3.17;2.08;;;;;;;17.39;100.00;95681.88;4974006;28;24437;-75
2022/09/07 02:00:52;;;;;;;4.05;1.65;;;;;;;17.42;100.00;95685.97;4970679;28;24456;-75
2022/09/07 02:03:25;;;;;;;5.37;1.97;;;;;;;17.47;100.00;95690.81;4972036;28;24433;-75
2022/09/07 02:05:58;;;;;;;10.30;2.25;;;;;;;17.48;100.00;95693.28;4973571;28;24441;-75
2022/09/07 02:08:28;;;;;;;9.50;1.90;;;;;;;17.49;100.00;95697.53;4972199;28;24441;-75
2022/09/07 02:11:00;;;;;;;3.55;2.08;;;;;;;17.49;100.00;95692.31;4970352;28;24444;-75
2022/09/07 02:13:33;;;;;;;4.13;2.00;;;;;;;17.50;100.00;95698.38;4973816;28;24441;-75
2022/09/07 02:16:04;;;;;;;4.93;2.20;;;;;;;17.51;100.00;95695.63;4965616;28;24448;-75
2022/09/07 02:18:37;;;;;;;5.20;1.92;;;;;;;17.38;100.00;95693.28;4973706;28;25027;-75
2022/09/07 02:21:07;;;;;;;3.75;2.20;;;;;;;17.32;100.00;95699.09;4967837;28;24444;-75
2022/09/07 02:23:40;;;;;;;4.60;2.22;;;;;;;17.28;100.00;95708.19;4973263;28;24464;-75
2022/09/07 02:26:12;;;;;;;4.63;2.17;;;;;;;17.36;100.00;95700.47;4973140;28;24438;-75
2022/09/07 02:28:41;;;;;;;5.00;2.20;;;;;;;17.30;100.00;95706.25;4973017;28;24997;-75
2022/09/07 02:31:08;;;;;;;7.78;2.53;;;;;;;17.21;100.00;95716.75;4968540;28;24531;-75
2022/09/07 02:33:34;;;;;;;5.25;2.50;;;;;;;17.14;100.00;95722.53;4973019;28;24492;-75
2022/09/07 02:36:02;;;;;;;3.97;2.00;;;;;;;17.11;100.00;95728.03;4972661;28;24445;-75
2022/09/07 02:38:29;;;;;;;3.15;1.92;;;;;;;16.97;100.00;95724.97;4971015;28;24495;-75
2022/09/07 02:40:57;;;;;;;7.38;2.25;;;;;;;17.03;100.00;95725.28;4971134;28;24440;-75
2022/09/07 02:43:25;;;;;;;4.88;1.95;;;;;;;17.07;100.00;95717.97;4966012;28;24439;-75
2022/09/07 02:46:13;;;;;;;5.45;2.20;;;;;;;16.95;100.00;95722.53;4967675;28;24446;-75
2022/09/07 02:48:50;;;;;;;5.30;1.80;;;;;;;16.93;100.00;95716.59;4961657;28;24449;-75
2022/09/07 02:51:27;;;;;;;3.03;2.00;;;;;;;17.37;100.00;95706.53;4971530;28;24877;-74
2022/09/07 02:54:15;;;;;;;4.32;2.13;;;;;;;17.24;100.00;95708.59;4969786;28;24449;-74
2022/09/07 02:56:52;;;;;;;6.68;1.83;;;;;;;16.96;100.00;95711.09;4968493;28;24445;-76
2022/09/07 02:59:32;;;;;;;4.57;2.00;;;;;;;16.83;100.00;95723.59;4972551;28;24445;-76
2022/09/07 03:02:06;;;;;;;4.77;1.90;;;;;;;16.77;100.00;95709.28;4972664;28;24438;-76
2022/09/07 03:04:43;;;;;;;2.65;1.63;;;;;;;16.78;100.00;95710.91;4972864;28;24796;-76
2022/09/07 03:07:14;;;;;;;4.13;2.33;;;;;;;16.72;100.00;95710.59;4972920;28;24437;-76
2022/09/07 03:09:46;;;;;;;4.00;1.90;;;;;;;16.65;100.00;95712.94;4972921;28;24998;-75
2022/09/07 03:12:13;;;;;;;9.52;2.40;;;;;;;16.55;100.00;95723.38;4972158;28;24469;-75
2022/09/07 03:14:41;;;;;;;4.37;2.10;;;;;;;16.68;100.00;95720.50;4972770;28;24452;-76
2022/09/07 03:17:10;;;;;;;3.53;1.90;;;;;;;16.71;100.00;95722.84;4971433;28;24448;-75
2022/09/07 03:19:37;;;;;;;4.10;2.20;;;;;;;16.78;100.00;95720.56;4971227;28;24515;-75
2022/09/07 03:22:03;;;;;;;8.10;2.60;;;;;;;16.54;100.00;95713.03;4972028;28;24456;-76
2022/09/07 03:24:30;;;;;;;3.95;2.08;;;;;;;16.61;100.00;95707.16;4971880;28;24875;-74
2022/09/07 03:26:58;;;;;;;6.22;2.40;;;;;;;16.62;100.00;95715.81;4972434;28;24444;-76
2022/09/07 03:29:24;;;;;;;4.80;2.13;;;;;;;16.62;100.00;95708.81;4969798;28;24440;-75
2022/09/07 03:31:50;;;;;;;9.68;2.15;;;;;;;16.56;100.00;95704.09;4963894;28;25028;-75
2022/09/07 03:34:18;;;;;;;5.78;2.60;;;;;;;16.52;100.00;95712.38;4971333;28;24433;-75
2022/09/07 03:36:45;;;;;;;3.73;2.37;;;;;;;16.57;100.00;95716.22;4970658;28;24444;-75
2022/09/07 03:39:13;;;;;;;3.67;2.20;;;;;;;16.53;100.00;95719.22;4971501;28;24444;-75
2022/09/07 03:41:39;;;;;;;3.80;1.98;;;;;;;16.49;100.00;95723.91;4966124;28;24446;-76
2022/09/07 03:44:07;;;;;;;3.22;2.08;;;;;;;16.47;100.00;95725.00;4968621;28;24476;-75
2022/09/07 03:46:34;;;;;;;4.25;2.20;;;;;;;16.36;100.00;95721.53;4971036;28;24440;-76
2022/09/07 03:49:01;;;;;;;3.25;2.03;;;;;;;16.41;100.00;95715.91;4969545;28;24440;-74
2022/09/07 03:51:29;;;;;;;4.23;2.03;;;;;;;16.42;100.00;95717.56;4969736;28;24521;-75
2022/09/07 03:53:56;;;;;;;4.90;2.20;;;;;;;16.56;100.00;95709.34;4968725;28;24434;-76
2022/09/07 03:56:24;;;;;;;4.03;2.25;;;;;;;16.55;100.00;95723.38;4963691;28;24442;-75
2022/09/07 03:58:51;;;;;;;3.40;2.17;;;;;;;16.37;100.00;95717.97;4966262;28;24507;-76
2022/09/07 04:01:19;;;;;;;5.30;2.58;;;;;;;16.31;100.00;95723.69;4966437;28;24437;-75
2022/09/07 04:03:46;;;;;;;6.05;2.00;;;;;;;16.29;100.00;95716.97;4970126;28;24437;-75
2022/09/07 04:06:13;;;;;;;3.70;2.22;;;;;;;16.30;100.00;95713.41;4971281;28;24848;-76
2022/09/07 04:08:42;;;;;;;3.67;2.20;;;;;;;16.29;100.00;95720.41;4963397;28;24452;-75
2022/09/07 04:11:13;;;;;;;4.47;2.42;;;;;;;16.28;100.00;95708.31;4971396;28;24994;-75
2022/09/07 04:13:40;;;;;;;3.88;2.00;;;;;;;16.26;100.00;95712.84;4963398;28;24460;-74
2022/09/07 04:16:11;;;;;;;2.92;1.90;;;;;;;16.13;100.00;95725.28;4965148;28;24438;-76
2022/09/07 04:18:38;;;;;;;3.83;1.90;;;;;;;16.06;100.00;95726.78;4969923;28;24434;-75
2022/09/07 04:21:04;;;;;;;4.28;2.13;;;;;;;16.03;100.00;95734.88;4970988;28;24446;-75
2022/09/07 04:23:31;;;;;;;4.03;2.15;;;;;;;16.04;100.00;95729.53;4970406;28;24437;-75
2022/09/07 04:25:58;;;;;;;3.25;2.10;;;;;;;16.09;100.00;95732.59;4965165;28;24516;-75
2022/09/07 04:28:25;;;;;;;3.75;2.10;;;;;;;15.88;100.00;95731.78;4970948;28;24440;-76
2022/09/07 04:30:52;;;;;;;4.38;2.10;;;;;;;15.68;100.00;95730.84;4964963;28;24445;-75
2022/09/07 04:33:18;;;;;;;4.15;2.30;;;;;;;15.73;100.00;95726.91;4967620;28;24457;-74
2022/09/07 04:35:45;;;;;;;5.10;2.23;;;;;;;15.80;100.00;95716.78;4961755;28;24448;-74
2022/09/07 04:38:14;;;;;;;4.00;2.03;;;;;;;15.87;100.00;95717.06;4964285;28;24440;-74
2022/09/07 04:40:41;;;;;;;3.70;2.38;;;;;;;15.89;100.00;95720.38;4966770;28;24421;-74
2022/09/07 04:43:11;;;;;;;4.65;2.78;;;;;;;15.88;100.00;95716.13;4963749;28;24430;-74
2022/09/07 04:45:38;;;;;;;4.60;2.53;;;;;;;15.89;100.00;95718.59;4963535;28;24544;-74
2022/09/07 04:48:05;;;;;;;3.97;2.67;;;;;;;15.92;100.00;95722.75;4966413;28;24448;-72
2022/09/07 04:50:32;;;;;;;4.63;2.53;;;;;;;15.65;100.00;95731.94;4969763;28;24440;-73
2022/09/07 04:52:59;;;;;;;6.68;2.58;;;;;;;15.45;100.00;95720.50;4968916;28;24454;-72
2022/09/07 04:55:25;;;;;;;3.05;2.38;;;;;;;15.33;100.00;95724.13;4968698;28;24998;-73
2022/09/07 04:57:52;;;;;;;5.78;2.60;;;;;;;15.20;100.00;95719.09;4968012;28;24440;-72
2022/09/07 05:00:20;;;;;;;5.75;2.70;;;;;;;15.23;100.00;95718.00;4970206;28;24440;-72
2022/09/07 05:02:46;;;;;;;5.00;2.40;;;;;;;15.29;100.00;95727.13;4969889;28;24972;-72
2022/09/07 05:05:13;;;;;;;9.90;2.70;;;;;;;15.37;100.00;95722.09;4968041;28;24439;-71
2022/09/07 05:07:40;;;;;;;4.60;2.47;;;;;;;15.51;100.00;95721.78;4966273;28;24456;-72
2022/09/07 05:10:07;;;;;;;4.95;2.33;;;;;;;15.59;100.00;95731.59;4966883;28;24847;-72
2022/09/07 05:12:33;;;;;;;6.10;2.70;;;;;;;15.53;100.00;95730.31;4969226;28;24472;-71
2022/09/07 05:15:00;;;;;;;9.07;3.13;;;;;;;15.54;100.00;95726.75;4973787;28;24991;-72
2022/09/07 05:17:29;;;;;;;6.35;2.60;;;;;;;15.54;100.00;95720.72;4973949;28;24473;-72
2022/09/07 05:19:56;;;;;;;7.95;2.78;;;;;;;15.50;100.00;95735.81;4972128;28;25104;-72
2022/09/07 05:22:23;;;;;;;7.40;2.58;;;;;;;15.44;100.00;95734.50;4968764;28;24445;-72
2022/09/07 05:24:50;;;;;;;6.15;2.67;;;;;;;15.37;100.00;95732.53;4971167;28;24453;-72
2022/09/07 05:27:17;;;;;;;7.82;2.90;;;;;;;15.37;100.00;95738.56;4962594;28;24545;-72
2022/09/07 05:29:43;;;;;;;6.38;2.78;;;;;;;15.46;100.00;95742.19;4964280;28;24445;-72
2022/09/07 05:32:10;;;;;;;4.68;2.85;;;;;;;15.58;100.00;95743.00;4970650;28;24442;-71
2022/09/07 05:34:37;;;;;;;4.45;2.50;;;;;;;15.66;100.00;95746.66;4969894;28;25002;-72
2022/09/07 05:37:04;;;;;;;4.28;2.40;;;;;;;15.80;100.00;95748.09;4970264;28;24460;-72
2022/09/07 05:39:30;;;;;;;5.90;2.60;;;;;;;15.97;100.00;95751.91;4968346;28;24433;-72
2022/09/07 05:41:57;;;;;;;9.35;3.05;;;;;;;16.11;100.00;95769.84;4967923;28;24438;-72
2022/09/07 05:44:24;;;;;;;4.75;2.55;;;;;;;16.26;100.00;95764.28;4968878;28;24437;-72
2022/09/07 05:46:51;;;;;;;7.55;2.90;;;;;;;16.31;100.00;95767.31;4968697;28;24453;-71
2022/09/07 05:49:17;;;;;;;6.80;2.88;;;;;;;16.25;100.00;95767.84;4970133;28;24438;-72
2022/09/07 05:51:45;;;;;;;5.93;2.60;;;;;;;16.28;100.00;95764.97;4967379;28;24448;-72
2022/09/07 05:54:12;;;;;;;4.10;2.40;;;;;;;16.51;100.00;95773.47;4970074;28;24603;-72
2022/09/07 05:56:38;;;;;;;7.18;2.47;;;;;;;16.59;100.00;95774.44;4969461;28;24461;-73
2022/09/07 05:59:05;;;;;;;5.20;2.85;;;;;;;16.62;100.00;95768.13;4965379;28;24453;-73
2022/09/07 06:01:34;;;;;;;7.55;2.58;;;;;;;16.77;100.00;95768.59;4961990;28;24445;-72
2022/09/07 06:04:00;;;;;;;7.18;2.40;;;;;;;16.95;100.00;95766.16;4971873;28;24441;-73
2022/09/07 06:06:27;;;;;;;2.92;2.42;;;;;;;17.13;100.00;95765.38;4968779;28;24438;-74
2022/09/07 06:08:56;;;;;;;6.83;2.47;;;;;;;17.18;100.00;95767.56;4972507;28;24465;-73
2022/09/07 06:11:25;;;;;;;9.70;2.92;;;;;;;17.32;100.00;95758.47;4972764;28;24994;-74
2022/09/07 06:13:52;;;;;;;8.15;3.10;;;;;;;17.44;100.00;95756.53;4968961;28;24460;-74
2022/09/07 06:16:19;;;;;;;7.85;2.80;;;;;;;17.59;100.00;95766.44;4971263;28;25051;-74
2022/09/07 06:18:47;;;;;;;6.57;2.78;;;;;;;17.63;100.00;95757.34;4973473;28;24445;-74
2022/09/07 06:21:15;;;;;;;3.55;2.10;;;;;;;17.67;100.00;95758.72;4968352;28;24442;-73
2022/09/07 06:23:43;;;;;;;5.70;2.25;;;;;;;17.62;100.00;95755.69;4970401;28;24449;-75
2022/09/07 06:26:12;;;;;;;5.65;2.65;;;;;;;17.54;100.00;95759.97;4964596;28;24449;-75
2022/09/07 06:28:40;;;;;;;6.72;2.60;;;;;;;17.49;100.00;95760.38;4960663;28;24449;-76
2022/09/07 06:31:08;;;;;;;4.73;2.40;;;;;;;17.47;100.00;95759.72;4969772;28;24437;-75
2022/09/07 06:33:35;;;;;;;7.22;2.83;;;;;;;17.37;100.00;95759.72;4973152;28;24465;-75
2022/09/07 06:36:05;;;;;;;4.38;2.42;;;;;;;17.37;100.00;95756.25;4970642;28;24441;-74
2022/09/07 06:38:33;;;;;;;5.05;2.47;;;;;;;17.49;100.00;95755.16;4970331;28;24806;-70
2022/09/07 06:41:03;;;;;;;7.70;2.42;;;;;;;17.53;100.00;95751.28;4959631;28;24449;-76
2022/09/07 06:43:31;;;;;;;7.30;2.40;;;;;;;17.51;100.00;95762.88;4965670;28;24437;-76
2022/09/07 06:45:59;;;;;;;4.70;2.23;;;;;;;17.56;100.00;95756.25;4973395;28;24514;-76
2022/09/07 06:48:26;;;;;;;5.13;2.45;;;;;;;17.70;100.00;95752.38;4970572;28;24453;-76
2022/09/07 06:50:57;;;;;;;7.72;3.10;;;;;;;17.63;100.00;95751.28;4972619;28;24429;-77
2022/09/07 06:53:24;;;;;;;7.30;2.35;;;;;;;17.80;100.00;95758.47;4967692;28;24476;-76
2022/09/07 06:55:50;;;;;;;7.82;2.53;;;;;;;18.03;100.00;95756.34;4973317;28;24507;-74
2022/09/07 06:58:17;;;;;;;6.03;2.53;;;;;;;18.17;100.00;95755.06;4973535;28;24443;-75
2022/09/07 07:00:45;;;;;;;8.57;2.30;;;;;;;18.34;100.00;95756.09;4973540;28;24445;-75
2022/09/07 07:03:11;;;;;;;6.13;2.30;;;;;;;18.41;100.00;95756.34;4966361;28;24434;-75
2022/09/07 07:05:38;;;;;;;7.03;2.38;;;;;;;18.49;100.00;95754.63;4967214;28;24436;-75
2022/09/07 07:08:04;;;;;;;5.43;2.40;;;;;;;18.65;100.00;95761.03;4972610;28;25024;-74
2022/09/07 07:10:31;;;;;;;7.75;2.80;;;;;;;18.74;100.00;95763.66;4971785;28;24441;-74
2022/09/07 07:12:57;;;;;;;7.43;2.50;;;;;;;18.85;100.00;95763.47;4972120;28;24461;-74
2022/09/07 07:15:25;;;;;;;5.50;2.28;;;;;;;19.07;100.00;95759.59;4971880;28;24433;-75
2022/09/07 07:17:53;;;;;;;4.90;2.40;;;;;;;19.16;100.00;95772.78;4970424;28;24488;-74
2022/09/07 07:20:20;;;;;;;6.23;2.60;;;;;;;19.31;100.00;95774.72;4971693;28;24796;-74
2022/09/07 07:22:50;;;;;;;4.55;2.35;;;;;;;19.86;100.00;95775.56;4972655;28;25006;-75
2022/09/07 07:25:16;;;;;;;6.40;2.28;;;;;;;20.04;100.00;95778.97;4972302;28;24851;-76
2022/09/07 07:27:44;;;;;;;3.60;1.90;;;;;;;20.12;100.00;95788.72;4965099;28;24437;-75
2022/09/07 07:30:11;;;;;;;8.68;3.05;;;;;;;19.86;100.00;95792.16;4972337;28;24796;-74
2022/09/07 07:32:38;;;;;;;8.30;2.50;;;;;;;20.23;100.00;95793.72;4971891;28;24457;-74
2022/09/07 07:35:07;;;;;;;5.68;2.45;;;;;;;20.19;100.00;95802.91;4976944;28;24437;-74
2022/09/07 07:37:35;;;;;;;4.05;2.15;;;;;;;20.39;100.00;95806.13;4966171;28;24437;-75
2022/09/07 07:40:02;;;;;;;7.85;2.15;;;;;;;20.38;100.00;95805.31;4966786;28;24441;-74
2022/09/07 07:42:29;;;;;;;10.48;2.60;;;;;;;20.33;100.00;95801.50;4966873;28;24444;-74
2022/09/07 07:44:55;;;;;;;8.63;2.75;;;;;;;20.49;100.00;95806.84;4968518;28;24445;-75
2022/09/07 07:47:21;;;;;;;4.70;2.13;;;;;;;20.65;100.00;95808.75;4967032;28;24834;-73
2022/09/07 07:49:48;;;;;;;8.82;2.40;;;;;;;20.91;100.00;95806.91;4971492;28;24442;-75
2022/09/07 07:52:16;;;;;;;13.63;2.90;;;;;;;21.05;100.00;95807.28;4971827;28;24449;-75
2022/09/07 07:54:42;;;;;;;12.45;2.60;;;;;;;21.26;100.00;95794.50;4964761;28;24556;-77
2022/09/07 07:57:09;;;;;;;6.95;2.20;;;;;;;21.64;100.00;95795.72;4971651;28;24445;-76
2022/09/07 07:59:36;;;;;;;6.80;2.67;;;;;;;21.46;100.00;95801.13;4970261;28;24448;-76
2022/09/07 08:02:03;;;;;;;7.05;2.50;;;;;;;21.57;100.00;95802.63;4971844;28;24472;-77
2022/09/07 08:04:30;;;;;;;7.90;3.15;;;;;;;21.58;100.00;95811.34;4963299;28;24493;-76
2022/09/07 08:06:56;;;;;;;7.03;2.40;;;;;;;21.86;100.00;95815.34;4971666;28;24438;-75
2022/09/07 08:09:24;;;;;;;9.10;2.25;;;;;;;22.22;100.00;95815.03;4971387;28;24798;-75
2022/09/07 08:11:51;;;;;;;6.57;2.20;;;;;;;22.34;97.80;95808.41;4971426;28;24573;-76
2022/09/07 08:14:17;;;;;;;5.87;2.20;;;;;;;22.68;97.54;95799.38;4971545;28;24454;-76
2022/09/07 08:16:44;;;;;;;7.03;2.38;;;;;;;22.84;92.54;95801.13;4976679;28;24429;-76
2022/09/07 08:19:10;;;;;;;8.38;2.10;;;;;;;23.10;91.47;95801.72;4974875;28;24441;-76
2022/09/07 08:21:37;;;;;;;10.20;2.40;;;;;;;23.23;90.52;95795.88;4971493;28;24441;-75
2022/09/07 08:24:04;;;;;;;7.72;2.25;;;;;;;23.46;90.95;95795.88;4971660;28;24433;-76
2022/09/07 08:26:32;;;;;;;11.90;2.45;;;;;;;23.49;88.58;95800.00;4970069;28;24437;-76
2022/09/07 08:28:58;;;;;;;7.95;2.22;;;;;;;23.57;86.20;95805.22;4970148;28;24429;-76
2022/09/07 08:31:25;;;;;;;9.68;2.40;;;;;;;23.65;85.27;95803.34;4971342;28;24440;-75
2022/09/07 08:33:52;;;;;;;7.15;2.10;;;;;;;23.80;86.00;95806.06;4970551;28;24445;-76
2022/09/07 08:36:20;;;;;;;5.97;1.98;;;;;;;24.28;84.42;95806.66;4971169;28;24437;-76
2022/09/07 08:38:47;;;;;;;6.35;2.08;;;;;;;24.69;80.43;95811.53;4970607;28;24429;-76
2022/09/07 08:41:39;;;;;;;7.03;2.35;;;;;;;24.73;80.14;95815.47;4971329;28;24441;-75
2022/09/07 08:44:12;;;;;;;9.23;2.22;;;;;;;24.68;80.17;95803.78;4966518;28;24832;-76
2022/09/07 08:46:45;;;;;;;5.18;2.22;;;;;;;24.59;78.55;95814.50;4970725;28;24437;-76
2022/09/07 08:49:19;;;;;;;5.72;1.92;;;;;;;24.94;79.44;95813.91;4970939;28;25025;-76
2022/09/07 08:51:50;;;;;;;5.93;2.15;;;;;;;25.17;77.02;95814.63;4963245;28;24438;-76
2022/09/07 08:54:17;;;;;;;7.15;2.00;;;;;;;25.01;76.84;95820.94;4970817;28;24461;-76
2022/09/07 08:56:48;;;;;;;5.95;2.00;;;;;;;24.68;76.59;95809.91;4971773;28;24449;-75
2022/09/07 08:59:21;;;;;;;9.90;1.90;;;;;;;25.00;76.11;95813.19;4971017;28;24977;-74
2022/09/07 09:01:47;;;;;;;8.07;2.13;;;;;;;25.11;76.00;95807.44;4963797;28;24433;-74
2022/09/07 09:04:18;;;;;;;8.93;2.03;;;;;;;25.49;75.05;95808.06;4970718;28;24440;-75
2022/09/07 09:07:07;;;;;;;5.85;2.10;;;;;;;25.63;71.44;95811.69;4963541;28;24444;-75
2022/09/07 09:09:48;;;;;;;4.50;1.65;;;;;;;26.15;70.87;95802.59;4970453;28;24986;-76
2022/09/07 09:12:23;;;;;;;7.18;1.90;;;;;;;26.43;70.57;95793.78;4970591;28;24452;-74
2022/09/07 09:15:03;;;;;;;7.70;1.83;;;;;;;26.66;66.35;95788.22;4963871;28;24831;-75
2022/09/07 09:17:35;;;;;;;6.25;1.90;;;;;;;26.35;66.87;95784.13;4970047;28;24430;-75
2022/09/07 09:20:16;;;;;;;9.98;1.80;;;;;;;26.22;66.92;95786.72;4970702;28;24991;-75
2022/09/07 09:22:43;;;;;;;14.57;1.70;;;;;;;26.48;65.19;95788.75;4968871;28;24438;-75
2022/09/07 09:25:19;;;;;;;4.28;1.63;;;;;;;26.45;65.64;95791.78;4970497;28;24440;-75
2022/09/07 09:27:47;;;;;;;4.50;1.40;;;;;;;26.96;63.99;95781.66;4969967;28;24430;-75
2022/09/07 09:30:16;;;;;;;4.82;1.50;;;;;;;27.22;63.90;95794.25;4970853;28;24438;-74
2022/09/07 09:32:44;;;;;;;5.25;1.80;;;;;;;26.84;62.71;95793.03;4969093;28;24993;-73
2022/09/07 09:35:14;;;;;;;5.32;1.60;;;;;;;26.79;63.19;95804.25;4970521;28;25018;-73
2022/09/07 09:37:42;;;;;;;5.10;1.52;;;;;;;26.52;63.31;95797.97;4968813;28;24812;-75
2022/09/07 09:40:22;;;;;;;3.47;1.50;;;;;;;26.67;63.73;95795.22;4974286;28;24434;-75
2022/09/07 09:43:00;;;;;;;4.15;1.60;;;;;;;26.20;63.00;95781.59;4974013;28;24440;-74
2022/09/07 09:45:29;;;;;;;3.60;1.40;;;;;;;26.60;62.06;95783.72;4974141;28;25031;-74
2022/09/07 09:47:57;;;;;;;5.88;1.58;;;;;;;26.45;62.18;95789.94;4974165;28;24506;-74
2022/09/07 09:50:26;;;;;;;4.00;1.52;;;;;;;26.57;61.19;95790.22;4973890;28;24441;-75
2022/09/07 09:52:54;;;;;;;3.70;1.35;;;;;;;26.74;60.16;95786.25;4974208;28;24434;-75
2022/09/07 09:55:25;;;;;;;3.78;1.45;;;;;;;26.29;60.84;95776.94;4974191;28;24552;-75
2022/09/07 09:57:57;;;;;;;3.70;1.40;;;;;;;26.26;62.12;95777.34;4968185;28;24425;-75
2022/09/07 10:00:25;;;;;;;3.22;1.33;;;;;;;26.41;64.65;95774.59;4973836;28;24441;-75
2022/09/07 10:03:17;;;;;;;4.75;1.60;;;;;;;26.26;64.18;95774.69;4973801;28;24496;-74
2022/09/07 10:05:45;;;;;;;4.35;1.83;;;;;;;25.85;62.31;95771.94;4968656;28;24504;-76
2022/09/07 10:08:19;;;;;;;4.83;1.60;;;;;;;25.95;61.40;95769.75;4973954;28;24429;-75
2022/09/07 10:10:57;;;;;;;2.95;1.60;;;;;;;26.44;58.93;95772.38;4971188;28;24440;-75
2022/09/07 10:13:30;;;;;;;3.50;1.38;;;;;;;26.71;57.29;95762.72;4973764;28;24444;-73
2022/09/07 10:15:58;;;;;;;4.53;1.40;;;;;;;27.21;58.47;95752.72;4968650;28;24430;-74
2022/09/07 10:18:31;;;;;;;2.83;1.20;;;;;;;27.12;54.15;95764.56;4973735;28;24953;-74
2022/09/07 10:21:24;;;;;;;4.95;1.65;;;;;;;26.73;56.30;95765.19;4973592;28;24757;-74
2022/09/07 10:23:58;;;;;;;6.20;1.50;;;;;;;26.82;55.68;95764.00;4969528;28;24795;-74
2022/09/07 10:26:31;;;;;;;3.45;1.30;;;;;;;26.90;54.41;95763.84;4973982;28;24433;-75
2022/09/07 10:29:16;;;;;;;3.40;1.37;;;;;;;26.52;58.68;95761.63;4981521;28;24840;-74
2022/09/07 10:32:05;;;;;;;7.28;1.83;;;;;;;25.79;62.66;95746.97;4961946;28;24443;-75
2022/09/07 10:34:43;;;;;;;5.95;1.90;;;;;;;25.94;61.72;95752.19;4972236;28;24456;-73
2022/09/07 10:37:13;;;;;;;4.05;1.90;;;;;;;25.94;60.56;95749.53;4961209;28;24445;-74
2022/09/07 10:39:42;;;;;;;4.43;1.50;;;;;;;26.14;59.64;95753.19;4973284;28;24444;-75
2022/09/07 10:42:24;;;;;;;5.40;1.80;;;;;;;26.19;60.57;95739.31;4967676;28;24437;-75
2022/09/07 10:45:03;;;;;;;5.65;1.48;;;;;;;25.99;57.01;95750.63;4966938;28;24430;-76
2022/09/07 10:47:45;;;;;;;5.63;1.52;;;;;;;25.90;58.38;95742.97;4973200;28;25062;-75
2022/09/07 10:50:23;;;;;;;11.52;1.77;;;;;;;25.39;60.43;95748.41;4971722;28;24445;-73
2022/09/07 10:52:56;;;;;;;5.53;1.85;;;;;;;25.12;60.19;95752.63;4966337;28;24804;-73
2022/09/07 10:55:30;;;;;;;3.47;1.40;;;;;;;24.80;59.92;95757.28;4977593;28;25017;-74
2022/09/07 10:58:09;;;;;;;3.20;1.25;;;;;;;24.81;59.44;95737.78;4967623;28;24516;-73
2022/09/07 11:00:45;;;;;;;5.00;1.57;;;;;;;24.92;60.26;95744.38;4972186;28;24433;-75
2022/09/07 11:03:28;;;;;;;6.70;1.35;;;;;;;25.23;58.35;95728.28;4972775;28;24449;-75
2022/09/07 11:06:13;;;;;;;3.90;1.23;;;;;;;24.94;56.74;95731.78;4967002;28;24436;-74
2022/09/07 11:08:57;;;;;;;5.57;1.35;;;;;;;25.11;56.35;95722.66;4972736;28;24834;-75
2022/09/07 11:11:28;;;;;;;4.05;1.40;;;;;;;25.10;55.78;95723.63;4972312;28;24473;-73
2022/09/07 11:13:59;;;;;;;3.47;1.17;;;;;;;25.16;53.59;95724.72;4971853;28;24993;-75
2022/09/07 11:16:32;;;;;;;5.67;1.53;;;;;;;25.48;54.70;95720.78;4965460;28;24457;-75
2022/09/07 11:19:02;;;;;;;4.22;1.48;;;;;;;25.39;55.84;95714.75;4973830;28;24437;-75
2022/09/07 11:21:36;;;;;;;3.15;1.42;;;;;;;24.97;55.17;95715.53;4973335;28;24429;-74
2022/09/07 11:24:08;;;;;;;2.80;1.23;;;;;;;24.76;56.25;95711.81;4972521;28;24429;-75
2022/09/07 11:26:40;;;;;;;2.88;1.40;;;;;;;24.78;56.09;95715.13;4972750;28;24441;-75
2022/09/07 11:29:13;;;;;;;4.15;1.35;;;;;;;24.70;55.65;95706.47;4967891;28;24429;-75
2022/09/07 11:31:44;;;;;;;2.97;1.33;;;;;;;24.92;55.28;95705.50;4972079;28;25076;-75
2022/09/07 11:34:16;;;;;;;7.38;1.42;;;;;;;25.10;53.41;95703.28;4972229;28;24975;-75
2022/09/07 11:36:50;;;;;;;4.13;1.50;;;;;;;25.43;51.52;95704.59;4967279;28;24983;-74
2022/09/07 11:39:24;;;;;;;3.73;1.30;;;;;;;25.60;51.62;95692.72;4972399;28;24433;-76
2022/09/07 11:41:57;;;;;;;2.42;1.25;;;;;;;25.66;48.76;95691.13;4972223;28;24468;-75